sensor_id;sensor_type;location;lat;lon;timestamp;pressure;altitude;pressure_sealevel;temperature;humidity
73242;BME280;65659;49.234;-2.094;2022-12-18T00:02:24;100802.22;;;23.67;21.94
73242;BME280;65659;49.234;-2.094;2022-12-18T00:04:49;100796.76;;;23.42;21.94
73242;BME280;65659;49.234;-2.094;2022-12-18T00:07:15;100792.91;;;23.85;21.97
73242;BME280;65659;49.234;-2.094;2022-12-18T00:09:41;100787.70;;;23.84;21.98
73242;BME280;65659;49.234;-2.094;2022-12-18T00:12:07;100782.66;;;23.37;21.97
73242;BME280;65659;49.234;-2.094;2022-12-18T00:14:33;100780.40;;;23.85;21.99
73242;BME280;65659;49.234;-2.094;2022-12-18T00:16:58;100778.41;;;23.37;21.98
73242;BME280;65659;49.234;-2.094;2022-12-18T00:19:24;100773.15;;;23.59;21.98
73242;BME280;65659;49.234;-2.094;2022-12-18T00:21:50;100770.87;;;23.60;22.00
73242;BME280;65659;49.234;-2.094;2022-12-18T00:24:16;100760.16;;;23.61;22.02
73242;BME280;65659;49.234;-2.094;2022-12-18T00:26:42;100761.64;;;23.84;22.00
73242;BME280;65659;49.234;-2.094;2022-12-18T00:29:11;100757.46;;;23.60;22.03
73242;BME280;65659;49.234;-2.094;2022-12-18T00:31:34;100752.37;;;23.41;21.99
73242;BME280;65659;49.234;-2.094;2022-12-18T00:33:59;100752.67;;;23.45;21.96
73242;BME280;65659;49.234;-2.094;2022-12-18T00:36:27;100758.45;;;23.66;21.98
73242;BME280;65659;49.234;-2.094;2022-12-18T00:38:51;100756.70;;;23.91;21.99
73242;BME280;65659;49.234;-2.094;2022-12-18T00:41:17;100760.17;;;23.64;22.01
73242;BME280;65659;49.234;-2.094;2022-12-18T00:43:42;100759.64;;;23.66;22.01
73242;BME280;65659;49.234;-2.094;2022-12-18T00:46:08;100757.63;;;23.63;22.01
73242;BME280;65659;49.234;-2.094;2022-12-18T00:48:34;100752.27;;;23.14;22.04
73242;BME280;65659;49.234;-2.094;2022-12-18T00:50:59;100753.64;;;23.63;22.03
73242;BME280;65659;49.234;-2.094;2022-12-18T00:53:25;100749.10;;;23.39;22.01
73242;BME280;65659;49.234;-2.094;2022-12-18T00:55:51;100742.29;;;23.63;22.03
73242;BME280;65659;49.234;-2.094;2022-12-18T00:58:17;100740.19;;;23.63;22.00
73242;BME280;65659;49.234;-2.094;2022-12-18T01:00:43;100745.21;;;23.62;22.05
73242;BME280;65659;49.234;-2.094;2022-12-18T01:03:10;100737.50;;;23.62;22.03
73242;BME280;65659;49.234;-2.094;2022-12-18T01:05:34;100730.63;;;23.38;22.03
73242;BME280;65659;49.234;-2.094;2022-12-18T01:08:00;100733.75;;;23.67;21.97
73242;BME280;65659;49.234;-2.094;2022-12-18T01:10:26;100729.24;;;23.43;21.97
73242;BME280;65659;49.234;-2.094;2022-12-18T01:12:51;100730.65;;;23.66;21.96
73242;BME280;65659;49.234;-2.094;2022-12-18T01:15:17;100730.86;;;23.43;21.98
73242;BME280;65659;49.234;-2.094;2022-12-18T01:17:42;100723.90;;;23.64;21.99
73242;BME280;65659;49.234;-2.094;2022-12-18T01:20:10;100719.95;;;23.42;22.00
73242;BME280;65659;49.234;-2.094;2022-12-18T01:22:34;100718.85;;;23.41;21.96
73242;BME280;65659;49.234;-2.094;2022-12-18T01:25:00;100721.68;;;23.62;22.01
73242;BME280;65659;49.234;-2.094;2022-12-18T01:27:26;100717.16;;;23.61;22.01
73242;BME280;65659;49.234;-2.094;2022-12-18T01:29:51;100709.32;;;23.62;22.02
73242;BME280;65659;49.234;-2.094;2022-12-18T01:32:17;100700.47;;;23.40;22.00
73242;BME280;65659;49.234;-2.094;2022-12-18T01:34:43;100699.29;;;23.39;21.98
73242;BME280;65659;49.234;-2.094;2022-12-18T01:37:09;100689.61;;;23.37;22.01
73242;BME280;65659;49.234;-2.094;2022-12-18T01:39:34;100681.46;;;23.63;22.00
73242;BME280;65659;49.234;-2.094;2022-12-18T01:42:02;100676.70;;;23.61;21.99
73242;BME280;65659;49.234;-2.094;2022-12-18T01:46:52;100680.04;;;23.93;21.90
73242;BME280;65659;49.234;-2.094;2022-12-18T01:49:17;100680.40;;;23.92;21.93
73242;BME280;65659;49.234;-2.094;2022-12-18T01:51:43;100678.03;;;23.66;21.95
73242;BME280;65659;49.234;-2.094;2022-12-18T01:54:09;100677.74;;;23.66;21.94
73242;BME280;65659;49.234;-2.094;2022-12-18T01:56:35;100675.66;;;23.41;21.94
73242;BME280;65659;49.234;-2.094;2022-12-18T01:59:03;100671.26;;;23.64;21.96
73242;BME280;65659;49.234;-2.094;2022-12-18T02:01:26;100674.56;;;23.86;21.98
73242;BME280;65659;49.234;-2.094;2022-12-18T02:03:52;100684.86;;;23.64;21.96
73242;BME280;65659;49.234;-2.094;2022-12-18T02:06:23;100688.37;;;23.40;21.94
73242;BME280;65659;49.234;-2.094;2022-12-18T02:08:51;100682.05;;;23.88;21.95
73242;BME280;65659;49.234;-2.094;2022-12-18T02:11:15;100683.96;;;23.41;21.95
73242;BME280;65659;49.234;-2.094;2022-12-18T02:13:43;100683.90;;;23.65;21.95
73242;BME280;65659;49.234;-2.094;2022-12-18T02:16:08;100680.38;;;23.41;21.93
73242;BME280;65659;49.234;-2.094;2022-12-18T02:18:30;100684.78;;;23.41;21.95
73242;BME280;65659;49.234;-2.094;2022-12-18T02:20:58;100680.38;;;23.42;21.93
73242;BME280;65659;49.234;-2.094;2022-12-18T02:23:28;100684.66;;;23.47;21.90
73242;BME280;65659;49.234;-2.094;2022-12-18T02:28:12;100690.35;;;23.73;21.88
73242;BME280;65659;49.234;-2.094;2022-12-18T02:30:38;100693.63;;;23.44;21.91
73242;BME280;65659;49.234;-2.094;2022-12-18T02:33:04;100689.52;;;23.65;21.92
73242;BME280;65659;49.234;-2.094;2022-12-18T02:35:29;100680.23;;;23.41;21.92
73242;BME280;65659;49.234;-2.094;2022-12-18T02:37:55;100678.76;;;23.91;21.92
73242;BME280;65659;49.234;-2.094;2022-12-18T02:40:19;100675.41;;;23.65;21.92
73242;BME280;65659;49.234;-2.094;2022-12-18T02:42:45;100672.17;;;23.66;21.93
73242;BME280;65659;49.234;-2.094;2022-12-18T02:45:10;100668.46;;;23.41;21.94
73242;BME280;65659;49.234;-2.094;2022-12-18T02:47:39;100666.66;;;23.42;21.93
73242;BME280;65659;49.234;-2.094;2022-12-18T02:50:08;100653.61;;;23.64;21.93
73242;BME280;65659;49.234;-2.094;2022-12-18T02:52:32;100645.20;;;23.65;21.96
73242;BME280;65659;49.234;-2.094;2022-12-18T02:55:00;100649.48;;;23.40;21.93
73242;BME280;65659;49.234;-2.094;2022-12-18T02:57:26;100648.74;;;23.66;21.91
73242;BME280;65659;49.234;-2.094;2022-12-18T02:59:53;100654.31;;;23.69;21.90
73242;BME280;65659;49.234;-2.094;2022-12-18T03:02:17;100662.36;;;23.72;21.85
73242;BME280;65659;49.234;-2.094;2022-12-18T03:04:40;100663.20;;;23.46;21.84
73242;BME280;65659;49.234;-2.094;2022-12-18T03:07:05;100667.43;;;23.41;21.90
73242;BME280;65659;49.234;-2.094;2022-12-18T03:09:31;100660.76;;;23.66;21.87
73242;BME280;65659;49.234;-2.094;2022-12-18T03:11:58;100659.60;;;23.66;21.90
73242;BME280;65659;49.234;-2.094;2022-12-18T03:14:20;100654.93;;;23.67;21.86
73242;BME280;65659;49.234;-2.094;2022-12-18T03:16:45;100660.97;;;23.89;21.92
73242;BME280;65659;49.234;-2.094;2022-12-18T03:19:21;100661.27;;;23.62;21.92
73242;BME280;65659;49.234;-2.094;2022-12-18T03:21:40;100662.77;;;23.65;21.91
73242;BME280;65659;49.234;-2.094;2022-12-18T03:24:05;100657.60;;;23.66;21.91
73242;BME280;65659;49.234;-2.094;2022-12-18T03:26:29;100661.67;;;23.42;21.89
73242;BME280;65659;49.234;-2.094;2022-12-18T03:28:56;100665.15;;;23.64;21.90
73242;BME280;65659;49.234;-2.094;2022-12-18T03:31:21;100665.12;;;23.63;21.88
73242;BME280;65659;49.234;-2.094;2022-12-18T03:33:50;100663.70;;;23.38;21.87
73242;BME280;65659;49.234;-2.094;2022-12-18T03:36:11;100659.00;;;23.67;21.82
73242;BME280;65659;49.234;-2.094;2022-12-18T03:38:37;100651.83;;;23.92;21.82
73242;BME280;65659;49.234;-2.094;2022-12-18T03:41:07;100665.96;;;23.63;21.86
73242;BME280;65659;49.234;-2.094;2022-12-18T03:43:35;100667.26;;;23.63;21.86
73242;BME280;65659;49.234;-2.094;2022-12-18T03:45:59;100666.73;;;23.39;21.84
73242;BME280;65659;49.234;-2.094;2022-12-18T03:48:25;100668.72;;;23.62;21.87
73242;BME280;65659;49.234;-2.094;2022-12-18T03:50:49;100678.78;;;23.63;21.86
73242;BME280;65659;49.234;-2.094;2022-12-18T03:53:19;100677.69;;;23.38;21.85
73242;BME280;65659;49.234;-2.094;2022-12-18T03:55:38;100673.51;;;23.64;21.86
73242;BME280;65659;49.234;-2.094;2022-12-18T03:58:04;100660.83;;;23.39;21.86
73242;BME280;65659;49.234;-2.094;2022-12-18T04:00:29;100660.79;;;23.63;21.87
73242;BME280;65659;49.234;-2.094;2022-12-18T04:02:55;100652.00;;;23.41;21.83
73242;BME280;65659;49.234;-2.094;2022-12-18T04:05:21;100645.75;;;23.85;21.87
73242;BME280;65659;49.234;-2.094;2022-12-18T04:07:47;100635.69;;;23.85;21.88
73242;BME280;65659;49.234;-2.094;2022-12-18T04:10:12;100631.63;;;23.61;21.89
73242;BME280;65659;49.234;-2.094;2022-12-18T04:12:37;100618.95;;;23.41;21.87
73242;BME280;65659;49.234;-2.094;2022-12-18T04:15:03;100616.65;;;23.44;21.86
73242;BME280;65659;49.234;-2.094;2022-12-18T04:17:28;100618.40;;;23.69;21.85
73242;BME280;65659;49.234;-2.094;2022-12-18T04:19:54;100616.44;;;23.40;21.89
73242;BME280;65659;49.234;-2.094;2022-12-18T04:22:20;100614.04;;;23.41;21.85
73242;BME280;65659;49.234;-2.094;2022-12-18T04:24:45;100612.04;;;23.41;21.90
73242;BME280;65659;49.234;-2.094;2022-12-18T04:27:11;100611.84;;;23.89;21.92
73242;BME280;65659;49.234;-2.094;2022-12-18T04:29:37;100607.58;;;23.64;21.90
73242;BME280;65659;49.234;-2.094;2022-12-18T04:32:03;100602.01;;;23.40;21.91
73242;BME280;65659;49.234;-2.094;2022-12-18T04:34:28;100599.78;;;23.86;21.93
73242;BME280;65659;49.234;-2.094;2022-12-18T04:36:54;100597.94;;;23.86;21.91
73242;BME280;65659;49.234;-2.094;2022-12-18T04:39:20;100602.04;;;23.38;21.95
73242;BME280;65659;49.234;-2.094;2022-12-18T04:41:46;100599.73;;;23.62;21.93
73242;BME280;65659;49.234;-2.094;2022-12-18T04:44:12;100601.35;;;23.62;21.94
73242;BME280;65659;49.234;-2.094;2022-12-18T04:46:37;100594.70;;;23.61;21.96
73242;BME280;65659;49.234;-2.094;2022-12-18T04:49:03;100590.05;;;23.40;21.92
73242;BME280;65659;49.234;-2.094;2022-12-18T04:51:29;100587.28;;;23.43;21.90
73242;BME280;65659;49.234;-2.094;2022-12-18T04:53:54;100586.96;;;23.90;21.88
73242;BME280;65659;49.234;-2.094;2022-12-18T04:56:20;100585.94;;;23.43;21.89
73242;BME280;65659;49.234;-2.094;2022-12-18T04:58:47;100579.56;;;23.66;21.90
73242;BME280;65659;49.234;-2.094;2022-12-18T05:01:13;100576.19;;;23.63;21.93
73242;BME280;65659;49.234;-2.094;2022-12-18T05:03:38;100565.92;;;23.86;21.95
73242;BME280;65659;49.234;-2.094;2022-12-18T05:06:04;100571.01;;;23.38;21.96
73242;BME280;65659;49.234;-2.094;2022-12-18T05:08:29;100563.64;;;23.42;21.91
73242;BME280;65659;49.234;-2.094;2022-12-18T05:10:59;100560.39;;;23.43;21.92
73242;BME280;65659;49.234;-2.094;2022-12-18T05:13:21;100549.15;;;23.67;21.93
73242;BME280;65659;49.234;-2.094;2022-12-18T05:15:51;100533.53;;;23.42;21.88
73242;BME280;65659;49.234;-2.094;2022-12-18T05:18:12;100529.48;;;23.65;21.90
73242;BME280;65659;49.234;-2.094;2022-12-18T05:20:38;100527.44;;;23.66;21.88
73242;BME280;65659;49.234;-2.094;2022-12-18T05:23:03;100527.27;;;23.64;21.94
73242;BME280;65659;49.234;-2.094;2022-12-18T05:25:29;100518.74;;;23.66;21.92
73242;BME280;65659;49.234;-2.094;2022-12-18T05:27:55;100519.88;;;23.72;21.87
73242;BME280;65659;49.234;-2.094;2022-12-18T05:30:21;100513.87;;;23.46;21.87
73242;BME280;65659;49.234;-2.094;2022-12-18T05:32:47;100504.16;;;23.45;21.89
73242;BME280;65659;49.234;-2.094;2022-12-18T05:35:12;100500.63;;;23.89;21.92
73242;BME280;65659;49.234;-2.094;2022-12-18T05:37:38;100499.69;;;23.41;21.92
73242;BME280;65659;49.234;-2.094;2022-12-18T05:40:05;100496.79;;;23.89;21.95
73242;BME280;65659;49.234;-2.094;2022-12-18T05:42:30;100493.10;;;23.89;21.96
73242;BME280;65659;49.234;-2.094;2022-12-18T05:44:55;100493.18;;;23.90;21.92
73242;BME280;65659;49.234;-2.094;2022-12-18T05:47:21;100502.21;;;23.66;21.91
73242;BME280;65659;49.234;-2.094;2022-12-18T05:49:47;100505.63;;;23.66;21.92
73242;BME280;65659;49.234;-2.094;2022-12-18T05:52:13;100515.49;;;23.67;21.92
73242;BME280;65659;49.234;-2.094;2022-12-18T05:54:38;100514.23;;;23.91;21.88
73242;BME280;65659;49.234;-2.094;2022-12-18T05:57:04;100510.61;;;23.65;21.93
73242;BME280;65659;49.234;-2.094;2022-12-18T05:59:30;100501.57;;;23.65;21.95
73242;BME280;65659;49.234;-2.094;2022-12-18T06:01:56;100500.14;;;23.43;21.91
73242;BME280;65659;49.234;-2.094;2022-12-18T06:04:21;100500.22;;;23.97;21.87
73242;BME280;65659;49.234;-2.094;2022-12-18T06:06:47;100503.14;;;23.72;21.88
73242;BME280;65659;49.234;-2.094;2022-12-18T06:09:13;100505.40;;;23.44;21.90
73242;BME280;65659;49.234;-2.094;2022-12-18T06:11:39;100503.98;;;23.43;21.92
73242;BME280;65659;49.234;-2.094;2022-12-18T06:14:06;100503.95;;;23.43;21.93
73242;BME280;65659;49.234;-2.094;2022-12-18T06:16:31;100499.55;;;23.67;21.92
73242;BME280;65659;49.234;-2.094;2022-12-18T06:18:56;100506.93;;;23.68;21.89
73242;BME280;65659;49.234;-2.094;2022-12-18T06:21:22;100505.80;;;23.89;21.92
73242;BME280;65659;49.234;-2.094;2022-12-18T06:23:48;100511.49;;;23.45;21.91
73242;BME280;65659;49.234;-2.094;2022-12-18T06:26:13;100513.75;;;23.44;21.90
73242;BME280;65659;49.234;-2.094;2022-12-18T06:28:39;100512.21;;;23.93;21.89
73242;BME280;65659;49.234;-2.094;2022-12-18T06:31:06;100509.49;;;23.44;21.91
73242;BME280;65659;49.234;-2.094;2022-12-18T06:33:31;100503.51;;;23.73;21.88
73242;BME280;65659;49.234;-2.094;2022-12-18T06:36:00;100500.03;;;23.46;21.89
73242;BME280;65659;49.234;-2.094;2022-12-18T06:38:22;100503.80;;;23.48;21.88
73242;BME280;65659;49.234;-2.094;2022-12-18T06:40:48;100510.39;;;23.76;21.87
73242;BME280;65659;49.234;-2.094;2022-12-18T06:43:14;100510.89;;;23.75;21.87
73242;BME280;65659;49.234;-2.094;2022-12-18T06:45:40;100512.14;;;23.74;21.84
73242;BME280;65659;49.234;-2.094;2022-12-18T06:48:05;100508.87;;;23.67;21.92
73242;BME280;65659;49.234;-2.094;2022-12-18T06:50:31;100493.08;;;23.68;21.91
73242;BME280;65659;49.234;-2.094;2022-12-18T06:52:57;100487.72;;;23.66;21.95
73242;BME280;65659;49.234;-2.094;2022-12-18T06:55:23;100491.80;;;23.43;21.91
73242;BME280;65659;49.234;-2.094;2022-12-18T06:57:48;100494.21;;;23.67;21.95
73242;BME280;65659;49.234;-2.094;2022-12-18T07:00:14;100491.76;;;23.43;21.95
73242;BME280;65659;49.234;-2.094;2022-12-18T07:02:39;100493.98;;;23.66;21.95
73242;BME280;65659;49.234;-2.094;2022-12-18T07:05:06;100484.27;;;23.40;21.97
73242;BME280;65659;49.234;-2.094;2022-12-18T07:07:31;100485.31;;;23.90;21.96
73242;BME280;65659;49.234;-2.094;2022-12-18T07:09:56;100486.10;;;23.89;21.97
73242;BME280;65659;49.234;-2.094;2022-12-18T07:12:22;100482.19;;;23.41;21.99
73242;BME280;65659;49.234;-2.094;2022-12-18T07:14:48;100482.50;;;23.42;21.98
73242;BME280;65659;49.234;-2.094;2022-12-18T07:17:13;100481.99;;;23.68;21.95
73242;BME280;65659;49.234;-2.094;2022-12-18T07:19:39;100488.03;;;23.74;21.89
73242;BME280;65659;49.234;-2.094;2022-12-18T07:22:05;100493.21;;;23.72;21.93
73242;BME280;65659;49.234;-2.094;2022-12-18T07:24:32;100497.43;;;23.67;21.96
73242;BME280;65659;49.234;-2.094;2022-12-18T07:26:56;100496.77;;;23.43;21.97
73242;BME280;65659;49.234;-2.094;2022-12-18T07:29:22;100492.64;;;23.91;21.98
73242;BME280;65659;49.234;-2.094;2022-12-18T07:31:48;100485.77;;;23.91;22.00
73242;BME280;65659;49.234;-2.094;2022-12-18T07:34:14;100479.94;;;23.41;22.01
73242;BME280;65659;49.234;-2.094;2022-12-18T07:36:40;100472.14;;;23.41;22.01
73242;BME280;65659;49.234;-2.094;2022-12-18T07:39:05;100475.41;;;23.40;22.01
73242;BME280;65659;49.234;-2.094;2022-12-18T07:41:31;100476.75;;;23.64;22.03
73242;BME280;65659;49.234;-2.094;2022-12-18T07:43:57;100476.53;;;23.41;22.02
73242;BME280;65659;49.234;-2.094;2022-12-18T07:46:23;100474.22;;;23.66;22.02
73242;BME280;65659;49.234;-2.094;2022-12-18T07:48:48;100470.83;;;23.43;22.01
73242;BME280;65659;49.234;-2.094;2022-12-18T07:51:14;100471.02;;;23.42;22.04
73242;BME280;65659;49.234;-2.094;2022-12-18T07:53:40;100469.10;;;23.49;21.98
73242;BME280;65659;49.234;-2.094;2022-12-18T07:56:08;100462.09;;;23.51;21.92
73242;BME280;65659;49.234;-2.094;2022-12-18T07:58:32;100462.21;;;23.52;21.93
73242;BME280;65659;49.234;-2.094;2022-12-18T08:01:03;100454.09;;;23.72;21.98
73242;BME280;65659;49.234;-2.094;2022-12-18T08:03:23;100455.57;;;23.48;21.98
73242;BME280;65659;49.234;-2.094;2022-12-18T08:05:49;100456.99;;;23.46;22.02
73242;BME280;65659;49.234;-2.094;2022-12-18T08:08:14;100455.90;;;23.67;22.02
73242;BME280;65659;49.234;-2.094;2022-12-18T08:10:40;100447.62;;;23.70;22.03
73242;BME280;65659;49.234;-2.094;2022-12-18T08:13:06;100445.89;;;23.42;22.05
73242;BME280;65659;49.234;-2.094;2022-12-18T08:15:32;100446.96;;;23.70;22.05
73242;BME280;65659;49.234;-2.094;2022-12-18T08:17:57;100448.81;;;23.45;22.06
73242;BME280;65659;49.234;-2.094;2022-12-18T08:20:23;100443.24;;;23.69;22.07
73242;BME280;65659;49.234;-2.094;2022-12-18T08:22:48;100437.33;;;23.70;22.07
73242;BME280;65659;49.234;-2.094;2022-12-18T08:25:14;100441.03;;;23.44;22.08
73242;BME280;65659;49.234;-2.094;2022-12-18T08:27:40;100427.78;;;23.96;22.07
73242;BME280;65659;49.234;-2.094;2022-12-18T08:30:07;100421.55;;;23.48;22.08
73242;BME280;65659;49.234;-2.094;2022-12-18T08:32:32;100421.13;;;23.53;21.99
73242;BME280;65659;49.234;-2.094;2022-12-18T08:34:57;100422.00;;;23.76;22.03
73242;BME280;65659;49.234;-2.094;2022-12-18T08:37:23;100423.15;;;23.49;22.06
73242;BME280;65659;49.234;-2.094;2022-12-18T08:39:49;100420.29;;;23.73;22.06
73242;BME280;65659;49.234;-2.094;2022-12-18T08:42:15;100418.68;;;23.47;22.07
73242;BME280;65659;49.234;-2.094;2022-12-18T08:44:40;100417.44;;;23.95;22.08
73242;BME280;65659;49.234;-2.094;2022-12-18T08:47:07;100416.96;;;23.94;22.07
73242;BME280;65659;49.234;-2.094;2022-12-18T08:49:32;100413.41;;;23.47;22.10
73242;BME280;65659;49.234;-2.094;2022-12-18T08:51:58;100414.90;;;23.72;22.07
73242;BME280;65659;49.234;-2.094;2022-12-18T08:54:24;100414.98;;;23.48;22.06
73242;BME280;65659;49.234;-2.094;2022-12-18T08:56:50;100415.53;;;23.50;22.04
73242;BME280;65659;49.234;-2.094;2022-12-18T08:59:15;100411.25;;;23.70;22.10
73242;BME280;65659;49.234;-2.094;2022-12-18T09:01:41;100407.33;;;23.94;22.10
73242;BME280;65659;49.234;-2.094;2022-12-18T09:04:08;100402.66;;;23.96;22.08
73242;BME280;65659;49.234;-2.094;2022-12-18T09:06:32;100400.17;;;23.47;22.11
73242;BME280;65659;49.234;-2.094;2022-12-18T09:08:58;100396.23;;;23.52;22.06
73242;BME280;65659;49.234;-2.094;2022-12-18T09:11:25;100401.17;;;23.77;22.08
73242;BME280;65659;49.234;-2.094;2022-12-18T09:13:49;100405.02;;;23.75;22.07
73242;BME280;65659;49.234;-2.094;2022-12-18T09:16:16;100399.85;;;23.72;22.08
73242;BME280;65659;49.234;-2.094;2022-12-18T09:18:41;100400.12;;;23.74;22.08
73242;BME280;65659;49.234;-2.094;2022-12-18T09:21:09;100393.74;;;23.48;22.12
73242;BME280;65659;49.234;-2.094;2022-12-18T09:23:32;100397.68;;;23.71;22.12
73242;BME280;65659;49.234;-2.094;2022-12-18T09:25:59;100396.59;;;23.49;22.10
73242;BME280;65659;49.234;-2.094;2022-12-18T09:28:24;100396.21;;;23.72;22.13
73242;BME280;65659;49.234;-2.094;2022-12-18T09:30:49;100394.68;;;23.48;22.15
73242;BME280;65659;49.234;-2.094;2022-12-18T09:33:15;100388.48;;;23.73;22.13
73242;BME280;65659;49.234;-2.094;2022-12-18T09:35:42;100387.07;;;23.49;22.15
73242;BME280;65659;49.234;-2.094;2022-12-18T09:38:07;100392.08;;;23.50;22.11
73242;BME280;65659;49.234;-2.094;2022-12-18T09:40:35;100391.50;;;23.96;22.16
73242;BME280;65659;49.234;-2.094;2022-12-18T09:43:00;100386.19;;;23.74;22.13
73242;BME280;65659;49.234;-2.094;2022-12-18T09:45:24;100384.11;;;23.54;22.12
73242;BME280;65659;49.234;-2.094;2022-12-18T09:47:50;100381.08;;;23.57;22.08
73242;BME280;65659;49.234;-2.094;2022-12-18T09:50:23;100386.73;;;23.54;22.09
73242;BME280;65659;49.234;-2.094;2022-12-18T09:52:43;100390.38;;;23.77;22.13
73242;BME280;65659;49.234;-2.094;2022-12-18T09:55:11;100391.17;;;23.76;22.12
73242;BME280;65659;49.234;-2.094;2022-12-18T09:57:33;100394.38;;;23.51;22.15
73242;BME280;65659;49.234;-2.094;2022-12-18T10:00:04;100387.61;;;23.76;22.15
73242;BME280;65659;49.234;-2.094;2022-12-18T10:02:25;100389.30;;;23.51;22.15
73242;BME280;65659;49.234;-2.094;2022-12-18T10:04:59;100387.51;;;23.52;22.15
73242;BME280;65659;49.234;-2.094;2022-12-18T10:07:19;100387.49;;;23.52;22.15
73242;BME280;65659;49.234;-2.094;2022-12-18T10:09:45;100389.04;;;23.53;22.13
73242;BME280;65659;49.234;-2.094;2022-12-18T10:12:12;100382.58;;;24.00;22.17
73242;BME280;65659;49.234;-2.094;2022-12-18T10:14:37;100386.00;;;23.76;22.16
73242;BME280;65659;49.234;-2.094;2022-12-18T10:17:03;100370.42;;;23.78;22.20
73242;BME280;65659;49.234;-2.094;2022-12-18T10:19:34;100369.38;;;23.53;22.18
73242;BME280;65659;49.234;-2.094;2022-12-18T10:21:55;100354.92;;;23.55;22.17
73242;BME280;65659;49.234;-2.094;2022-12-18T10:24:20;100349.26;;;23.58;22.16
73242;BME280;65659;49.234;-2.094;2022-12-18T10:26:41;100347.41;;;23.80;22.18
73242;BME280;65659;49.234;-2.094;2022-12-18T10:29:09;100350.93;;;23.55;22.17
73242;BME280;65659;49.234;-2.094;2022-12-18T10:31:32;100343.61;;;23.55;22.18
73242;BME280;65659;49.234;-2.094;2022-12-18T10:33:58;100334.29;;;23.78;22.21
73242;BME280;65659;49.234;-2.094;2022-12-18T10:36:24;100327.39;;;23.77;22.22
73242;BME280;65659;49.234;-2.094;2022-12-18T10:38:49;100317.14;;;23.51;22.24
73242;BME280;65659;49.234;-2.094;2022-12-18T10:41:24;100312.91;;;23.52;22.22
73242;BME280;65659;49.234;-2.094;2022-12-18T10:43:41;100307.44;;;23.52;22.24
73242;BME280;65659;49.234;-2.094;2022-12-18T10:46:15;100304.54;;;23.75;22.27
73242;BME280;65659;49.234;-2.094;2022-12-18T10:48:35;100309.36;;;23.77;22.24
73242;BME280;65659;49.234;-2.094;2022-12-18T10:50:58;100304.49;;;23.80;22.23
73242;BME280;65659;49.234;-2.094;2022-12-18T10:53:26;100302.83;;;23.77;22.25
73242;BME280;65659;49.234;-2.094;2022-12-18T10:55:52;100304.05;;;23.76;22.27
73242;BME280;65659;49.234;-2.094;2022-12-18T10:58:20;100290.57;;;23.56;22.24
73242;BME280;65659;49.234;-2.094;2022-12-18T11:00:41;100290.43;;;24.07;22.19
73242;BME280;65659;49.234;-2.094;2022-12-18T11:05:34;100281.56;;;23.54;22.26
73242;BME280;65659;49.234;-2.094;2022-12-18T11:07:59;100281.32;;;23.55;22.26
73242;BME280;65659;49.234;-2.094;2022-12-18T11:10:30;100272.67;;;23.76;22.29
73242;BME280;65659;49.234;-2.094;2022-12-18T11:12:50;100273.07;;;23.51;22.29
73242;BME280;65659;49.234;-2.094;2022-12-18T11:15:18;100271.71;;;23.77;22.30
73242;BME280;65659;49.234;-2.094;2022-12-18T11:17:42;100265.15;;;23.54;22.29
73242;BME280;65659;49.234;-2.094;2022-12-18T11:22:34;100257.09;;;24.02;22.33
73242;BME280;65659;49.234;-2.094;2022-12-18T11:25:00;100259.64;;;23.76;22.34
73242;BME280;65659;49.234;-2.094;2022-12-18T11:27:25;100266.52;;;23.77;22.31
73242;BME280;65659;49.234;-2.094;2022-12-18T11:29:50;100252.45;;;23.54;22.33
73242;BME280;65659;49.234;-2.094;2022-12-18T11:32:27;100244.35;;;23.53;22.32
73242;BME280;65659;49.234;-2.094;2022-12-18T11:34:44;100228.90;;;23.58;22.28
73242;BME280;65659;49.234;-2.094;2022-12-18T11:37:09;100234.02;;;23.60;22.28
73242;BME280;65659;49.234;-2.094;2022-12-18T11:39:37;100234.86;;;23.81;22.32
73242;BME280;65659;49.234;-2.094;2022-12-18T11:42:03;100233.84;;;23.81;22.32
73242;BME280;65659;49.234;-2.094;2022-12-18T11:44:27;100230.36;;;23.56;22.32
73242;BME280;65659;49.234;-2.094;2022-12-18T11:46:55;100226.95;;;23.56;22.30
73242;BME280;65659;49.234;-2.094;2022-12-18T11:49:20;100225.73;;;23.56;22.36
73242;BME280;65659;49.234;-2.094;2022-12-18T11:51:47;100215.84;;;23.79;22.34
73242;BME280;65659;49.234;-2.094;2022-12-18T11:54:13;100209.99;;;23.55;22.36
73242;BME280;65659;49.234;-2.094;2022-12-18T11:56:36;100211.56;;;23.80;22.37
73242;BME280;65659;49.234;-2.094;2022-12-18T11:59:07;100207.13;;;23.79;22.36
73242;BME280;65659;49.234;-2.094;2022-12-18T12:01:36;100199.52;;;23.80;22.36
73242;BME280;65659;49.234;-2.094;2022-12-18T12:04:05;100192.66;;;23.56;22.37
73242;BME280;65659;49.234;-2.094;2022-12-18T12:06:21;100191.93;;;23.58;22.36
73242;BME280;65659;49.234;-2.094;2022-12-18T12:08:54;100185.76;;;23.81;22.38
73242;BME280;65659;49.234;-2.094;2022-12-18T12:11:13;100187.03;;;23.61;22.38
73242;BME280;65659;49.234;-2.094;2022-12-18T12:13:40;100187.36;;;23.63;22.35
73242;BME280;65659;49.234;-2.094;2022-12-18T12:16:09;100185.93;;;23.62;22.36
73242;BME280;65659;49.234;-2.094;2022-12-18T12:18:31;100187.57;;;23.62;22.38
73242;BME280;65659;49.234;-2.094;2022-12-18T12:20:58;100180.07;;;23.83;22.40
73242;BME280;65659;49.234;-2.094;2022-12-18T12:23:25;100177.96;;;23.83;22.42
73242;BME280;65659;49.234;-2.094;2022-12-18T12:25:48;100177.89;;;23.84;22.41
73242;BME280;65659;49.234;-2.094;2022-12-18T12:28:20;100173.42;;;23.82;22.43
73242;BME280;65659;49.234;-2.094;2022-12-18T12:30:41;100170.99;;;23.60;22.42
73242;BME280;65659;49.234;-2.094;2022-12-18T12:33:11;100166.53;;;23.82;22.44
73242;BME280;65659;49.234;-2.094;2022-12-18T12:35:33;100166.37;;;24.08;22.43
73242;BME280;65659;49.234;-2.094;2022-12-18T12:37:59;100166.16;;;23.84;22.44
73242;BME280;65659;49.234;-2.094;2022-12-18T12:40:24;100163.24;;;23.60;22.45
73242;BME280;65659;49.234;-2.094;2022-12-18T12:42:46;100162.56;;;23.59;22.47